createdAt,value
2022-12-18T00:01:00.309Z,6.23
2022-12-18T00:03:27.147Z,6.93
2022-12-18T00:05:53.646Z,9.30
2022-12-18T00:08:20.113Z,11.53
2022-12-18T00:10:46.828Z,7.00
2022-12-18T00:13:13.453Z,13.63
2022-12-18T00:15:40.597Z,4.50
2022-12-18T00:18:12.210Z,4.67
2022-12-18T00:20:40.476Z,11.33
2022-12-18T00:23:07.641Z,7.13
2022-12-18T00:25:36.089Z,8.13
2022-12-18T00:28:03.393Z,9.87
2022-12-18T00:30:29.861Z,8.97
2022-12-18T00:32:56.312Z,11.43
2022-12-18T00:35:25.750Z,6.03
2022-12-18T00:37:52.822Z,7.80
2022-12-18T00:40:19.852Z,9.97
2022-12-18T00:42:58.158Z,7.10
2022-12-18T00:45:25.178Z,9.00
2022-12-18T00:47:51.946Z,9.23
2022-12-18T00:50:18.383Z,6.37
2022-12-18T00:52:44.767Z,6.53
2022-12-18T00:55:11.632Z,5.57
2022-12-18T00:57:38.004Z,4.10
2022-12-18T01:00:07.547Z,6.43
2022-12-18T01:02:35.085Z,6.90
2022-12-18T01:05:02.123Z,4.93
2022-12-18T01:07:28.616Z,7.07
2022-12-18T01:09:54.921Z,8.50
2022-12-18T01:12:22.708Z,5.77
2022-12-18T01:14:50.697Z,8.13
2022-12-18T01:17:17.290Z,10.03
2022-12-18T01:19:43.963Z,2.53
2022-12-18T01:22:10.364Z,6.17
2022-12-18T01:24:37.933Z,6.57
2022-12-18T01:27:04.292Z,7.10
2022-12-18T01:29:30.730Z,3.80
2022-12-18T01:31:57.110Z,5.23
2022-12-18T01:34:24.034Z,11.87
2022-12-18T01:36:53.121Z,2.50
2022-12-18T01:39:19.515Z,4.13
2022-12-18T01:42:04.394Z,5.50
2022-12-18T01:44:49.639Z,8.47
2022-12-18T01:47:21.284Z,4.60
2022-12-18T01:49:47.632Z,9.50
2022-12-18T01:52:16.082Z,5.87
2022-12-18T01:54:42.676Z,5.27
2022-12-18T01:57:09.994Z,10.23
2022-12-18T01:59:36.571Z,5.53
2022-12-18T02:02:03.524Z,8.07
2022-12-18T02:04:30.263Z,9.30
2022-12-18T02:07:21.376Z,7.60
2022-12-18T02:10:09.032Z,7.37
2022-12-18T02:13:07.761Z,7.07
2022-12-18T02:15:40.501Z,8.23
2022-12-18T02:18:28.598Z,6.40
2022-12-18T02:21:21.091Z,4.10
2022-12-18T02:23:53.230Z,6.43
2022-12-18T02:26:29.587Z,6.00
2022-12-18T02:29:05.938Z,6.00
2022-12-18T02:31:37.738Z,11.00
2022-12-18T02:34:05.562Z,8.13
2022-12-18T02:36:39.676Z,9.43
2022-12-18T02:39:07.925Z,7.23
2022-12-18T02:41:37.738Z,8.73
2022-12-18T02:44:08.379Z,8.53
2022-12-18T02:46:40.872Z,9.43
2022-12-18T02:49:14.687Z,4.87
2022-12-18T02:51:54.413Z,6.50
2022-12-18T02:54:33.269Z,11.57
2022-12-18T02:57:04.476Z,8.00
2022-12-18T02:59:36.104Z,4.40
2022-12-18T03:02:22.862Z,6.50
2022-12-18T03:07:20.368Z,5.47
2022-12-18T03:09:50.154Z,3.47
2022-12-18T03:12:25.310Z,8.93
2022-12-18T03:15:05.551Z,5.73
2022-12-18T03:17:33.123Z,4.73
2022-12-18T03:20:03.026Z,11.83
2022-12-18T03:22:31.633Z,4.60
2022-12-18T03:24:59.166Z,6.70
2022-12-18T03:27:27.131Z,5.10
2022-12-18T03:30:07.945Z,5.60
2022-12-18T03:33:00.550Z,7.77
2022-12-18T03:35:30.375Z,4.60
2022-12-18T03:37:56.865Z,5.40
2022-12-18T03:40:28.078Z,5.43
2022-12-18T03:43:00.356Z,7.60
2022-12-18T03:45:32.690Z,3.93
2022-12-18T03:48:05.827Z,5.63
2022-12-18T03:50:37.909Z,6.87
2022-12-18T03:53:19.351Z,3.67
2022-12-18T03:55:48.844Z,4.57
2022-12-18T03:58:18.457Z,5.53
2022-12-18T04:00:56.989Z,5.47
2022-12-18T04:03:26.695Z,1.97
2022-12-18T04:05:54.000Z,11.47
2022-12-18T04:08:22.300Z,12.33
2022-12-18T04:10:57.489Z,6.03
2022-12-18T04:13:25.896Z,3.10
2022-12-18T04:15:52.670Z,4.00
2022-12-18T04:18:20.128Z,8.30
2022-12-18T04:20:46.950Z,8.63
2022-12-18T04:23:13.515Z,5.77
2022-12-18T04:25:40.906Z,3.50
2022-12-18T04:28:11.401Z,8.33
2022-12-18T04:30:39.226Z,7.27
2022-12-18T04:33:09.490Z,7.33
2022-12-18T04:35:35.833Z,3.53
2022-12-18T04:38:02.257Z,4.67
2022-12-18T04:40:28.648Z,7.10
2022-12-18T04:42:55.326Z,6.17
2022-12-18T04:45:21.733Z,5.20
2022-12-18T04:47:48.077Z,6.93
2022-12-18T04:50:14.342Z,14.20
2022-12-18T04:52:40.887Z,5.53
2022-12-18T04:55:07.791Z,9.60
2022-12-18T04:57:34.163Z,9.10
2022-12-18T05:00:01.772Z,5.37
2022-12-18T05:02:28.199Z,3.20
2022-12-18T05:04:55.059Z,7.20
2022-12-18T05:07:21.408Z,5.87
2022-12-18T05:09:47.781Z,6.33
2022-12-18T05:12:14.159Z,4.03
2022-12-18T05:14:40.517Z,12.30
2022-12-18T05:17:06.912Z,6.93
2022-12-18T05:19:35.600Z,4.50
2022-12-18T05:22:02.369Z,4.83
2022-12-18T05:24:28.691Z,7.50
2022-12-18T05:26:55.195Z,7.63
2022-12-18T05:29:21.574Z,8.97
2022-12-18T05:31:48.048Z,9.30
2022-12-18T05:34:15.012Z,4.90
2022-12-18T05:36:41.383Z,4.70
2022-12-18T05:39:07.967Z,3.83
2022-12-18T05:41:34.366Z,3.50
2022-12-18T05:44:00.738Z,6.60
2022-12-18T05:46:27.055Z,3.37
2022-12-18T05:48:53.485Z,9.40
2022-12-18T05:51:21.835Z,2.47
2022-12-18T05:53:49.067Z,6.23
2022-12-18T05:56:16.830Z,6.30
2022-12-18T05:58:45.067Z,3.07
2022-12-18T06:01:14.266Z,5.40
2022-12-18T06:03:41.146Z,5.13
2022-12-18T06:06:15.527Z,5.30
2022-12-18T06:08:46.173Z,4.70
2022-12-18T06:11:13.583Z,5.17
2022-12-18T06:13:40.285Z,2.43
2022-12-18T06:16:07.203Z,9.83
2022-12-18T06:18:33.595Z,3.60
2022-12-18T06:21:01.053Z,2.70
2022-12-18T06:23:27.663Z,6.20
2022-12-18T06:25:53.937Z,3.77
2022-12-18T06:28:20.364Z,3.87
2022-12-18T06:30:49.028Z,6.00
2022-12-18T06:33:15.642Z,13.33
2022-12-18T06:35:42.221Z,9.07
2022-12-18T06:38:09.152Z,2.93
2022-12-18T06:40:37.379Z,6.17
2022-12-18T06:43:03.737Z,5.77
2022-12-18T06:45:30.310Z,6.83
2022-12-18T06:47:56.603Z,11.20
2022-12-18T06:50:25.330Z,6.90
2022-12-18T06:52:51.605Z,9.73
2022-12-18T06:55:17.997Z,8.47
2022-12-18T06:57:44.312Z,4.63
2022-12-18T07:00:10.836Z,6.23
2022-12-18T07:02:37.230Z,2.33
2022-12-18T07:05:10.269Z,8.40
2022-12-18T07:07:37.243Z,7.07
2022-12-18T07:10:04.044Z,4.50
2022-12-18T07:12:30.521Z,5.20
2022-12-18T07:14:56.822Z,5.97
2022-12-18T07:17:23.332Z,5.43
2022-12-18T07:19:49.645Z,6.70
2022-12-18T07:22:15.977Z,7.70
2022-12-18T07:24:42.407Z,5.00
2022-12-18T07:27:08.674Z,8.10
2022-12-18T07:29:36.306Z,3.93
2022-12-18T07:32:02.727Z,5.03
2022-12-18T07:34:29.116Z,7.67
2022-12-18T07:36:55.566Z,5.63
2022-12-18T07:39:22.592Z,5.77
2022-12-18T07:42:09.313Z,4.87
2022-12-18T07:44:37.508Z,3.90
2022-12-18T07:47:11.818Z,7.17
2022-12-18T07:49:38.833Z,4.53
2022-12-18T07:52:05.422Z,3.67
2022-12-18T07:54:31.841Z,9.73
2022-12-18T07:56:58.197Z,6.17
2022-12-18T07:59:24.495Z,5.07
2022-12-18T08:01:50.857Z,5.50
2022-12-18T08:04:17.393Z,9.03
2022-12-18T08:06:47.559Z,7.33
2022-12-18T08:09:15.531Z,3.83
2022-12-18T08:11:41.859Z,9.43
2022-12-18T08:14:08.167Z,8.17
2022-12-18T08:16:35.970Z,6.50
2022-12-18T08:19:02.684Z,11.90
2022-12-18T08:21:30.378Z,9.03
2022-12-18T08:23:58.335Z,9.50
2022-12-18T08:26:27.189Z,5.40
2022-12-18T08:28:54.757Z,4.20
2022-12-18T08:31:22.009Z,7.00
2022-12-18T08:33:53.478Z,14.53
2022-12-18T08:36:21.798Z,9.07
2022-12-18T08:38:48.132Z,7.80
2022-12-18T08:41:15.525Z,25.03
2022-12-18T08:44:01.789Z,17.13
2022-12-18T08:46:33.081Z,10.70
2022-12-18T08:49:01.818Z,7.83
2022-12-18T08:51:29.268Z,9.50
2022-12-18T08:53:55.828Z,13.37
2022-12-18T08:56:22.164Z,11.73
2022-12-18T08:58:48.510Z,13.00
2022-12-18T09:01:14.974Z,8.97
2022-12-18T09:03:41.997Z,12.60
2022-12-18T09:06:09.121Z,13.03
2022-12-18T09:08:35.620Z,12.50
2022-12-18T09:11:01.942Z,10.60
2022-12-18T09:13:28.406Z,13.63
2022-12-18T09:15:56.234Z,9.57
2022-12-18T09:18:23.263Z,11.40
2022-12-18T09:20:51.098Z,9.73
2022-12-18T09:23:17.409Z,11.63
2022-12-18T09:25:43.723Z,18.97
2022-12-18T09:28:14.306Z,13.90
2022-12-18T09:30:41.361Z,10.80
2022-12-18T09:33:07.961Z,12.83
2022-12-18T09:35:36.869Z,14.33
2022-12-18T09:38:03.201Z,11.63
2022-12-18T09:40:33.461Z,13.23
2022-12-18T09:43:01.481Z,17.93
2022-12-18T09:45:28.372Z,17.97
2022-12-18T09:47:56.235Z,16.07
2022-12-18T09:50:25.658Z,17.30
2022-12-18T09:52:53.484Z,14.47
2022-12-18T09:55:35.147Z,18.17
2022-12-18T09:58:12.748Z,17.00
2022-12-18T10:00:39.195Z,13.63
2022-12-18T10:03:13.299Z,20.30
2022-12-18T10:05:51.917Z,18.70
2022-12-18T10:08:23.298Z,21.17
2022-12-18T10:10:50.947Z,17.93
2022-12-18T10:13:33.265Z,12.97
2022-12-18T10:16:08.774Z,16.07
2022-12-18T10:18:41.844Z,19.10
2022-12-18T10:21:12.146Z,16.90
2022-12-18T10:23:50.748Z,15.67
2022-12-18T10:26:17.055Z,21.20
2022-12-18T10:28:44.792Z,18.83
2022-12-18T10:31:24.524Z,18.87
2022-12-18T10:33:51.962Z,17.20
2022-12-18T10:36:18.510Z,18.47
2022-12-18T10:38:44.992Z,26.00
2022-12-18T10:41:22.927Z,20.40
2022-12-18T10:43:49.283Z,15.93
2022-12-18T10:46:17.845Z,15.47
2022-12-18T10:48:47.301Z,18.40
2022-12-18T10:51:30.404Z,14.47
2022-12-18T10:54:00.415Z,18.03
2022-12-18T10:56:28.568Z,18.10
2022-12-18T10:58:59.468Z,20.80
2022-12-18T11:01:25.876Z,19.63
2022-12-18T11:03:59.022Z,15.03
2022-12-18T11:06:28.317Z,14.27
2022-12-18T11:08:59.486Z,23.43
2022-12-18T11:11:26.578Z,14.30
2022-12-18T11:13:59.494Z,13.17
2022-12-18T11:16:26.109Z,14.17
2022-12-18T11:18:52.469Z,17.20
2022-12-18T11:21:18.837Z,18.13
2022-12-18T11:23:50.642Z,22.97
2022-12-18T11:26:17.049Z,11.60
2022-12-18T11:29:17.983Z,15.13
2022-12-18T11:31:44.718Z,22.43
2022-12-18T11:34:45.760Z,22.00
2022-12-18T11:37:13.874Z,17.77
2022-12-18T11:39:43.585Z,20.37
2022-12-18T11:42:30.130Z,13.80
2022-12-18T11:45:09.189Z,15.02
2022-12-18T11:47:40.343Z,16.83
2022-12-18T11:50:13.574Z,17.33
2022-12-18T11:52:40.847Z,22.00
2022-12-18T11:55:29.994Z,18.37
2022-12-18T11:58:04.654Z,17.33
2022-12-18T12:00:32.523Z,18.93
2022-12-18T12:03:01.956Z,18.60
2022-12-18T12:05:39.252Z,20.50
2022-12-18T12:08:34.670Z,12.00
2022-12-18T12:14:15.165Z,20.80
2022-12-18T12:17:04.117Z,18.33
2022-12-18T12:19:37.645Z,13.63
2022-12-18T12:22:03.927Z,17.23
2022-12-18T12:25:04.402Z,16.40
2022-12-18T12:27:36.645Z,16.17
2022-12-18T12:30:27.223Z,15.97
2022-12-18T12:32:53.626Z,21.97
2022-12-18T12:35:22.913Z,16.93
2022-12-18T12:38:04.616Z,10.70
2022-12-18T12:43:37.757Z,19.03
2022-12-18T12:46:05.915Z,13.37
2022-12-18T12:48:51.121Z,19.73
2022-12-18T12:51:19.253Z,19.47
2022-12-18T12:53:47.155Z,15.17
2022-12-18T12:56:15.444Z,14.47
2022-12-18T12:58:51.116Z,14.83
2022-12-18T13:01:37.094Z,15.33
2022-12-18T13:04:11.385Z,17.30
2022-12-18T13:07:06.068Z,19.43
2022-12-18T13:09:35.023Z,23.37
2022-12-18T13:12:23.263Z,17.37
2022-12-18T13:14:49.758Z,13.77
2022-12-18T13:17:20.102Z,16.57
2022-12-18T13:19:51.300Z,11.40
2022-12-18T13:22:25.170Z,16.33
2022-12-18T13:24:52.025Z,21.10
2022-12-18T13:27:37.503Z,13.67
2022-12-18T13:30:19.092Z,15.10
2022-12-18T13:32:45.711Z,22.57
2022-12-18T13:35:19.101Z,14.57
2022-12-18T13:37:56.561Z,16.83
2022-12-18T13:40:42.272Z,13.07
2022-12-18T13:43:27.096Z,18.47
2022-12-18T13:46:02.808Z,13.80
2022-12-18T13:48:30.615Z,14.60
2022-12-18T13:51:02.796Z,14.70
2022-12-18T13:53:35.299Z,16.47
2022-12-18T13:56:02.764Z,10.97
2022-12-18T13:58:30.261Z,14.90
2022-12-18T14:00:57.752Z,18.10
2022-12-18T14:03:27.426Z,13.03
2022-12-18T14:05:55.823Z,11.37
2022-12-18T14:08:24.602Z,16.83
2022-12-18T14:10:54.137Z,16.50
2022-12-18T14:13:35.627Z,15.67
2022-12-18T14:16:04.370Z,13.30
2022-12-18T14:18:47.780Z,13.33
2022-12-18T14:21:26.057Z,22.10
2022-12-18T14:24:07.983Z,20.50
2022-12-18T14:26:34.868Z,13.43
2022-12-18T14:29:02.543Z,13.30
2022-12-18T14:31:30.402Z,10.27
2022-12-18T14:33:57.496Z,12.90
2022-12-18T14:36:25.336Z,12.00
2022-12-18T14:38:54.539Z,13.73
2022-12-18T14:41:22.023Z,15.37
2022-12-18T14:43:49.858Z,14.87
2022-12-18T14:46:36.186Z,12.73
2022-12-18T14:49:16.218Z,9.70
2022-12-18T14:51:48.099Z,8.33
2022-12-18T14:54:19.653Z,11.20
2022-12-18T14:56:47.801Z,11.30
2022-12-18T14:59:23.753Z,15.23
2022-12-18T15:02:02.631Z,10.77
2022-12-18T15:04:30.422Z,11.03
2022-12-18T15:07:09.294Z,12.60
2022-12-18T15:09:35.714Z,10.17
2022-12-18T15:12:02.396Z,14.53
2022-12-18T15:14:39.383Z,14.83
2022-12-18T15:17:18.684Z,16.73
2022-12-18T15:19:45.717Z,16.63
2022-12-18T15:22:18.667Z,11.47
2022-12-18T15:24:45.685Z,10.87
2022-12-18T15:27:23.313Z,10.50
2022-12-18T15:30:06.140Z,9.60
2022-12-18T15:32:32.464Z,11.10
2022-12-18T15:35:16.991Z,12.30
2022-12-18T15:37:43.529Z,12.83
2022-12-18T15:40:13.323Z,14.17
2022-12-18T15:42:58.678Z,17.00
2022-12-18T15:45:25.081Z,13.30
2022-12-18T15:47:51.580Z,16.63
2022-12-18T15:50:17.960Z,10.67
2022-12-18T15:52:45.789Z,12.77
2022-12-18T15:55:35.889Z,9.37
2022-12-18T15:58:03.154Z,11.83
2022-12-18T16:00:29.656Z,13.17
2022-12-18T16:02:56.187Z,10.27
2022-12-18T16:05:23.371Z,10.97
2022-12-18T16:07:49.735Z,14.10
2022-12-18T16:10:16.139Z,10.07
2022-12-18T16:12:42.984Z,12.97
2022-12-18T16:15:11.392Z,19.00
2022-12-18T16:17:37.717Z,14.47
2022-12-18T16:20:04.183Z,18.63
2022-12-18T16:22:31.044Z,14.47
2022-12-18T16:24:57.775Z,15.33
2022-12-18T16:27:24.883Z,20.83
2022-12-18T16:29:51.595Z,12.70
2022-12-18T16:32:19.638Z,12.33
2022-12-18T16:34:46.803Z,16.47
2022-12-18T16:37:14.298Z,19.13
2022-12-18T16:39:41.190Z,13.73
2022-12-18T16:42:19.883Z,10.53
2022-12-18T16:44:47.170Z,11.87
2022-12-18T16:47:15.250Z,16.07
2022-12-18T16:49:44.263Z,11.50
2022-12-18T16:52:10.598Z,19.40
2022-12-18T16:54:37.072Z,15.87
2022-12-18T16:57:05.200Z,9.57
2022-12-18T16:59:31.810Z,10.80
2022-12-18T17:01:58.503Z,12.43
2022-12-18T17:04:25.028Z,11.73
2022-12-18T17:06:54.400Z,10.03
2022-12-18T17:09:28.305Z,11.57
2022-12-18T17:11:54.666Z,13.63
2022-12-18T17:14:22.186Z,9.93
2022-12-18T17:16:57.831Z,10.80
2022-12-18T17:22:02.435Z,13.57
2022-12-18T17:24:34.403Z,14.60
2022-12-18T17:27:01.388Z,11.80
2022-12-18T17:29:27.681Z,13.87
2022-12-18T17:31:54.044Z,24.03
2022-12-18T17:34:21.950Z,11.83
2022-12-18T17:36:48.296Z,14.07
2022-12-18T17:39:17.705Z,17.03
2022-12-18T17:41:44.351Z,12.10
2022-12-18T17:44:10.813Z,20.30
2022-12-18T17:46:37.230Z,16.13
2022-12-18T17:49:03.724Z,10.07
2022-12-18T17:51:30.524Z,15.83
2022-12-18T17:53:56.923Z,8.80
2022-12-18T17:56:24.249Z,16.83
2022-12-18T17:58:50.885Z,9.87
2022-12-18T18:01:18.829Z,10.37
2022-12-18T18:03:45.822Z,19.80
2022-12-18T18:06:14.372Z,11.67
2022-12-18T18:08:40.949Z,12.90
2022-12-18T18:11:29.411Z,24.07
2022-12-18T18:14:01.862Z,15.60
2022-12-18T18:16:29.763Z,13.77
2022-12-18T18:19:00.355Z,13.33
2022-12-18T18:21:27.571Z,14.93
2022-12-18T18:23:54.335Z,18.10
2022-12-18T18:26:22.139Z,21.03
2022-12-18T18:28:49.544Z,13.73
2022-12-18T18:31:16.272Z,17.27
2022-12-18T18:33:43.392Z,14.67
2022-12-18T18:36:10.103Z,14.17
2022-12-18T18:38:36.482Z,17.13
2022-12-18T18:41:03.881Z,18.80
2022-12-18T18:43:30.450Z,12.77
2022-12-18T18:45:57.652Z,16.60
2022-12-18T18:48:24.079Z,13.27
2022-12-18T18:51:06.057Z,14.40
2022-12-18T18:53:36.955Z,14.17
2022-12-18T18:56:45.083Z,11.47
2022-12-18T18:58:51.701Z,12.73
2022-12-18T19:01:19.152Z,14.30
2022-12-18T19:03:48.115Z,24.57
2022-12-18T19:06:16.291Z,18.90
2022-12-18T19:08:43.806Z,9.00
2022-12-18T19:11:36.009Z,15.03
2022-12-18T19:14:04.140Z,14.43
2022-12-18T19:16:32.694Z,12.10
2022-12-18T19:19:02.266Z,14.10
2022-12-18T19:21:29.081Z,16.17
2022-12-18T19:23:57.899Z,11.40
2022-12-18T19:26:27.813Z,13.90
2022-12-18T19:28:54.744Z,16.97
2022-12-18T19:31:27.097Z,15.60
2022-12-18T19:33:56.489Z,18.63
2022-12-18T19:36:25.106Z,14.57
2022-12-18T19:38:52.781Z,16.20
2022-12-18T19:41:19.913Z,8.93
2022-12-18T19:43:47.370Z,20.13
2022-12-18T19:46:15.649Z,19.20
2022-12-18T19:48:42.585Z,14.97
2022-12-18T19:51:11.465Z,20.13
2022-12-18T19:53:37.871Z,18.53
2022-12-18T19:56:08.155Z,12.10
2022-12-18T19:58:34.514Z,15.80
2022-12-18T20:01:01.280Z,13.23
2022-12-18T20:03:32.576Z,14.93
2022-12-18T20:06:11.605Z,13.23
2022-12-18T20:08:38.259Z,13.40
2022-12-18T20:11:05.137Z,13.30
2022-12-18T20:13:33.116Z,14.77
2022-12-18T20:15:59.470Z,19.40
2022-12-18T20:18:26.177Z,17.43
2022-12-18T20:20:52.932Z,17.37
2022-12-18T20:23:24.072Z,14.73
2022-12-18T20:25:52.777Z,13.90
2022-12-18T20:28:19.269Z,19.40
2022-12-18T20:30:45.855Z,13.27
2022-12-18T20:33:12.221Z,15.53
2022-12-18T20:35:38.597Z,13.80
2022-12-18T20:38:05.747Z,19.97
2022-12-18T20:40:33.439Z,16.57
2022-12-18T20:43:00.274Z,15.00
2022-12-18T20:45:27.928Z,14.73
2022-12-18T20:47:55.004Z,13.80
2022-12-18T20:50:21.544Z,19.63
2022-12-18T20:52:48.047Z,14.17
2022-12-18T20:55:14.401Z,9.57
2022-12-18T20:57:40.867Z,19.37
2022-12-18T21:00:07.964Z,9.40
2022-12-18T21:02:35.084Z,14.47
2022-12-18T21:05:01.493Z,16.93
2022-12-18T21:07:27.814Z,15.27
2022-12-18T21:09:54.179Z,11.77
2022-12-18T21:12:43.964Z,15.10
2022-12-18T21:15:16.692Z,19.63
2022-12-18T21:17:44.639Z,18.97
2022-12-18T21:20:17.354Z,17.97
2022-12-18T21:22:44.394Z,14.40
2022-12-18T21:25:10.779Z,10.03
2022-12-18T21:27:37.163Z,8.47
2022-12-18T21:30:03.838Z,13.57
2022-12-18T21:32:32.217Z,13.87
2022-12-18T21:34:59.972Z,14.23
2022-12-18T21:37:26.624Z,10.77
2022-12-18T21:39:52.986Z,14.87
2022-12-18T21:42:38.229Z,15.23
2022-12-18T21:45:04.778Z,13.73
2022-12-18T21:47:31.218Z,11.30
2022-12-18T21:49:57.569Z,13.60
2022-12-18T21:52:30.755Z,11.17
2022-12-18T21:55:01.902Z,13.97
2022-12-18T21:57:34.859Z,15.50
2022-12-18T22:00:02.115Z,15.53
2022-12-18T22:02:38.485Z,11.27
2022-12-18T22:05:05.302Z,11.20
2022-12-18T22:07:32.486Z,9.83
2022-12-18T22:10:02.223Z,14.80
2022-12-18T22:12:43.600Z,15.27
2022-12-18T22:15:11.325Z,22.07
2022-12-18T22:17:39.700Z,17.63
2022-12-18T22:20:06.282Z,12.00
2022-12-18T22:22:32.616Z,13.07
2022-12-18T22:24:58.938Z,15.87
2022-12-18T22:27:25.452Z,13.67
2022-12-18T22:30:04.028Z,16.23
2022-12-18T22:32:34.882Z,16.77
2022-12-18T22:35:07.241Z,18.73
2022-12-18T22:37:35.733Z,14.90
2022-12-18T22:40:12.205Z,11.77
2022-12-18T22:42:39.368Z,13.57
2022-12-18T22:45:06.103Z,15.90
2022-12-18T22:47:32.480Z,17.00
2022-12-18T22:49:58.852Z,18.47
2022-12-18T22:52:25.445Z,12.10
2022-12-18T22:54:53.758Z,13.53
2022-12-18T22:57:20.719Z,17.87
2022-12-18T22:59:47.034Z,9.63
2022-12-18T23:02:15.841Z,16.37
2022-12-18T23:04:44.779Z,15.00
2022-12-18T23:07:11.432Z,12.17
2022-12-18T23:09:39.297Z,15.83
2022-12-18T23:12:05.797Z,16.00
2022-12-18T23:14:32.159Z,12.57
2022-12-18T23:16:58.787Z,17.10
2022-12-18T23:19:25.268Z,17.97
2022-12-18T23:21:52.266Z,21.50
2022-12-18T23:24:28.353Z,11.03
2022-12-18T23:29:24.352Z,11.38
2022-12-18T23:31:51.070Z,11.57
2022-12-18T23:34:18.069Z,18.63
2022-12-18T23:36:46.161Z,16.73
2022-12-18T23:39:28.792Z,15.37
2022-12-18T23:41:57.327Z,11.37
2022-12-18T23:44:23.681Z,14.00
2022-12-18T23:46:50.123Z,19.93
2022-12-18T23:49:18.810Z,12.97
2022-12-18T23:51:45.171Z,12.93
2022-12-18T23:54:11.853Z,15.67
2022-12-18T23:56:38.145Z,24.80
2022-12-18T23:59:04.495Z,11.93
